createdAt,value
2023-04-18T00:01:09.789Z,1.92
2023-04-18T00:03:38.989Z,4.68
2023-04-18T00:06:08.616Z,1.65
2023-04-18T00:08:36.620Z,1.17
2023-04-18T00:11:04.578Z,2.58
2023-04-18T00:13:32.705Z,1.48
2023-04-18T00:16:01.905Z,0.93
2023-04-18T00:18:29.848Z,2.58
2023-04-18T00:20:57.922Z,2.25
2023-04-18T00:23:28.303Z,1.73
2023-04-18T00:25:56.196Z,1.50
2023-04-18T00:28:24.181Z,2.40
2023-04-18T00:30:52.224Z,1.95
2023-04-18T00:33:20.285Z,0.90
2023-04-18T00:35:48.240Z,1.15
2023-04-18T00:38:16.335Z,3.80
2023-04-18T00:40:45.737Z,2.88
2023-04-18T00:43:14.709Z,0.80
2023-04-18T00:45:42.799Z,1.20
2023-04-18T00:48:12.333Z,3.55
2023-04-18T00:50:41.778Z,1.95
2023-04-18T00:53:11.128Z,1.38
2023-04-18T00:55:40.032Z,5.90
2023-04-18T00:58:09.953Z,0.70
2023-04-18T01:00:38.034Z,1.05
2023-04-18T01:03:06.729Z,3.17
2023-04-18T01:05:36.216Z,2.70
2023-04-18T01:08:05.554Z,4.00
2023-04-18T01:10:37.454Z,2.90
2023-04-18T01:13:14.934Z,1.83
2023-04-18T01:15:43.780Z,2.00
2023-04-18T01:18:13.202Z,1.77
2023-04-18T01:20:43.573Z,2.80
2023-04-18T01:23:11.606Z,4.20
2023-04-18T01:25:41.039Z,2.03
2023-04-18T01:28:09.067Z,2.35
2023-04-18T01:30:37.340Z,4.00
2023-04-18T01:33:06.388Z,1.38
2023-04-18T01:35:34.931Z,1.48
2023-04-18T01:38:02.982Z,1.98
2023-04-18T01:40:31.454Z,3.13
2023-04-18T01:43:02.161Z,3.35
2023-04-18T01:45:30.292Z,1.73
2023-04-18T01:47:58.448Z,1.63
2023-04-18T01:50:26.681Z,1.83
2023-04-18T01:52:54.925Z,1.70
2023-04-18T01:55:23.041Z,3.08
2023-04-18T01:57:51.758Z,0.85
2023-04-18T02:00:22.748Z,2.85
2023-04-18T02:02:51.503Z,1.00
2023-04-18T02:05:22.243Z,1.90
2023-04-18T02:07:50.864Z,2.35
2023-04-18T02:10:19.678Z,1.20
2023-04-18T02:12:47.731Z,0.85
2023-04-18T02:15:15.745Z,1.50
2023-04-18T02:17:45.636Z,1.30
2023-04-18T02:20:14.762Z,1.52
2023-04-18T02:22:42.889Z,1.55
2023-04-18T02:25:11.555Z,3.67
2023-04-18T02:27:40.339Z,1.33
2023-04-18T02:30:09.403Z,2.03
2023-04-18T02:32:37.589Z,2.75
2023-04-18T02:35:07.817Z,2.45
2023-04-18T02:37:35.815Z,1.00
2023-04-18T02:40:05.644Z,1.60
2023-04-18T02:42:33.796Z,1.40
2023-04-18T02:45:02.805Z,1.77
2023-04-18T02:47:37.514Z,1.00
2023-04-18T02:50:13.341Z,2.25
2023-04-18T02:52:41.381Z,2.22
2023-04-18T02:55:10.621Z,1.25
2023-04-18T02:57:42.121Z,2.38
2023-04-18T03:00:46.307Z,1.00
2023-04-18T03:03:32.665Z,1.73
2023-04-18T03:06:19.671Z,1.83
2023-04-18T03:08:47.928Z,1.38
2023-04-18T03:11:16.844Z,0.93
2023-04-18T03:13:45.079Z,0.93
2023-04-18T03:16:13.980Z,1.73
2023-04-18T03:18:43.620Z,0.80
2023-04-18T03:21:12.480Z,1.15
2023-04-18T03:23:42.208Z,1.25
2023-04-18T03:26:12.612Z,0.95
2023-04-18T03:28:41.943Z,2.67
2023-04-18T03:31:10.606Z,3.42
2023-04-18T03:33:42.367Z,2.38
2023-04-18T03:36:12.169Z,1.20
2023-04-18T03:38:43.057Z,1.15
2023-04-18T03:41:11.401Z,2.20
2023-04-18T03:43:39.985Z,1.98
2023-04-18T03:46:08.076Z,3.58
2023-04-18T03:48:37.354Z,2.17
2023-04-18T03:51:11.767Z,1.23
2023-04-18T03:53:41.787Z,2.05
2023-04-18T03:56:09.901Z,1.80
2023-04-18T03:59:04.207Z,1.05
2023-04-18T04:01:32.894Z,0.85
2023-04-18T04:04:02.845Z,1.67
2023-04-18T04:06:32.336Z,3.67
2023-04-18T04:09:03.070Z,2.35
2023-04-18T04:11:31.205Z,1.42
2023-04-18T04:13:59.444Z,1.50
2023-04-18T04:16:34.141Z,4.20
2023-04-18T04:19:03.349Z,3.72
2023-04-18T04:21:37.681Z,2.42
2023-04-18T04:24:09.535Z,1.55
2023-04-18T04:26:42.720Z,2.50
2023-04-18T04:29:21.587Z,1.27
2023-04-18T04:31:50.316Z,1.02
2023-04-18T04:34:29.655Z,2.10
2023-04-18T04:36:57.700Z,1.73
2023-04-18T04:39:29.148Z,5.93
2023-04-18T04:42:16.016Z,2.97
2023-04-18T04:44:54.709Z,1.95
2023-04-18T04:47:23.746Z,1.50
2023-04-18T04:49:51.756Z,4.05
2023-04-18T04:52:19.851Z,2.20
2023-04-18T04:54:49.344Z,2.10
2023-04-18T04:57:19.451Z,1.30
2023-04-18T04:59:47.487Z,2.35
2023-04-18T05:02:15.574Z,1.45
2023-04-18T05:04:43.783Z,2.65
2023-04-18T05:07:11.936Z,1.92
2023-04-18T05:09:40.061Z,1.77
2023-04-18T05:12:09.822Z,0.70
2023-04-18T05:14:37.813Z,1.25
2023-04-18T05:17:07.191Z,1.52
2023-04-18T05:19:35.330Z,3.60
2023-04-18T05:22:03.428Z,3.63
2023-04-18T05:24:32.559Z,4.00
2023-04-18T05:27:01.237Z,4.22
2023-04-18T05:29:30.542Z,0.88
2023-04-18T05:31:58.453Z,2.33
2023-04-18T05:34:26.377Z,6.93
2023-04-18T05:36:54.372Z,3.72
2023-04-18T05:39:22.269Z,2.42
2023-04-18T05:41:50.417Z,4.10
2023-04-18T05:44:18.560Z,1.55
2023-04-18T05:46:51.266Z,1.15
2023-04-18T05:49:19.391Z,2.47
2023-04-18T05:51:49.631Z,1.45
2023-04-18T05:54:17.731Z,0.93
2023-04-18T05:56:45.853Z,2.17
2023-04-18T05:59:14.705Z,5.18
2023-04-18T06:01:42.898Z,1.70
2023-04-18T06:04:12.477Z,2.20
2023-04-18T06:06:40.531Z,2.83
2023-04-18T06:09:08.884Z,0.77
2023-04-18T06:11:36.867Z,1.95
2023-04-18T06:14:04.883Z,2.28
2023-04-18T06:16:32.912Z,4.00
2023-04-18T06:19:02.406Z,2.63
2023-04-18T06:21:32.091Z,1.27
2023-04-18T06:24:01.304Z,3.25
2023-04-18T06:26:30.174Z,2.47
2023-04-18T06:28:58.165Z,2.75
2023-04-18T06:31:26.227Z,2.78
2023-04-18T06:33:54.353Z,1.88
2023-04-18T06:36:22.514Z,2.03
2023-04-18T06:38:51.916Z,2.60
2023-04-18T06:41:19.948Z,2.60
2023-04-18T06:44:02.086Z,1.92
2023-04-18T06:46:31.530Z,1.60
2023-04-18T06:48:59.743Z,1.35
2023-04-18T06:51:28.173Z,1.20
2023-04-18T06:53:57.558Z,2.42
2023-04-18T06:56:25.681Z,5.90
2023-04-18T06:58:53.869Z,1.08
2023-04-18T07:01:21.959Z,4.07
2023-04-18T07:03:49.946Z,15.10
2023-04-18T07:06:18.760Z,4.13
2023-04-18T07:08:46.715Z,5.90
2023-04-18T07:11:18.512Z,1.65
2023-04-18T07:13:47.383Z,5.32
2023-04-18T07:16:15.462Z,3.22
2023-04-18T07:18:43.537Z,3.22
2023-04-18T07:21:11.654Z,6.82
2023-04-18T07:23:39.719Z,2.20
2023-04-18T07:26:09.482Z,5.60
2023-04-18T07:28:38.939Z,6.32
2023-04-18T07:31:11.068Z,5.47
2023-04-18T07:33:39.599Z,4.57
2023-04-18T07:36:08.348Z,1.83
2023-04-18T07:38:36.429Z,5.93
2023-04-18T07:41:04.888Z,1.60
2023-04-18T07:43:32.977Z,3.40
2023-04-18T07:46:02.346Z,2.20
2023-04-18T07:48:30.390Z,2.05
2023-04-18T07:50:58.413Z,6.70
2023-04-18T07:53:26.553Z,1.83
2023-04-18T07:55:55.504Z,3.50
2023-04-18T07:58:23.504Z,1.20
2023-04-18T08:00:51.564Z,6.15
2023-04-18T08:03:21.362Z,6.28
2023-04-18T08:05:50.156Z,4.00
2023-04-18T08:08:18.484Z,2.50
2023-04-18T08:10:46.594Z,5.57
2023-04-18T08:13:14.725Z,3.33
2023-04-18T08:15:43.551Z,3.42
2023-04-18T08:18:11.617Z,4.50
2023-04-18T08:20:41.159Z,9.00
2023-04-18T08:23:12.224Z,3.10
2023-04-18T08:25:41.213Z,3.03
2023-04-18T08:28:09.645Z,2.78
2023-04-18T08:30:37.891Z,9.52
2023-04-18T08:33:05.842Z,134.48
2023-04-18T08:35:35.278Z,215.75
2023-04-18T08:38:04.621Z,196.18
2023-04-18T08:40:32.719Z,153.68
2023-04-18T08:43:04.978Z,110.95
2023-04-18T08:45:33.367Z,82.60
2023-04-18T08:48:03.582Z,58.65
2023-04-18T08:50:31.969Z,51.85
2023-04-18T08:53:04.121Z,36.55
2023-04-18T08:55:33.577Z,27.65
2023-04-18T08:58:01.599Z,23.75
2023-04-18T09:00:30.662Z,18.25
2023-04-18T09:02:59.126Z,17.83
2023-04-18T09:05:28.288Z,12.70
2023-04-18T09:07:57.386Z,9.07
2023-04-18T09:10:33.057Z,8.25
2023-04-18T09:13:03.074Z,15.27
2023-04-18T09:15:31.920Z,8.95
2023-04-18T09:18:03.113Z,6.40
2023-04-18T09:20:37.892Z,5.30
2023-04-18T09:23:10.449Z,11.32
2023-04-18T09:25:46.611Z,7.13
2023-04-18T09:28:27.108Z,8.68
2023-04-18T09:30:56.437Z,4.63
2023-04-18T09:33:29.324Z,4.68
2023-04-18T09:36:00.272Z,5.60
2023-04-18T09:38:41.119Z,4.78
2023-04-18T09:41:12.000Z,3.83
2023-04-18T09:43:40.508Z,3.30
2023-04-18T09:46:09.577Z,5.55
2023-04-18T09:48:37.980Z,5.15
2023-04-18T09:51:07.756Z,4.43
2023-04-18T09:53:39.452Z,9.38
2023-04-18T09:56:10.803Z,4.70
2023-04-18T09:58:42.676Z,2.65
2023-04-18T10:01:13.135Z,2.40
2023-04-18T10:03:45.697Z,1.45
2023-04-18T10:06:17.788Z,1.67
2023-04-18T10:08:46.358Z,2.28
2023-04-18T10:11:14.573Z,2.08
2023-04-18T10:13:48.288Z,5.00
2023-04-18T10:16:17.036Z,3.97
2023-04-18T10:18:45.108Z,0.85
2023-04-18T10:21:13.307Z,4.70
2023-04-18T10:23:41.678Z,4.15
2023-04-18T10:26:10.492Z,2.72
2023-04-18T10:28:54.340Z,8.85
2023-04-18T10:31:23.516Z,3.28
2023-04-18T10:34:03.950Z,14.27
2023-04-18T10:36:33.196Z,94.60
2023-04-18T10:39:04.031Z,453.25
2023-04-18T10:41:33.068Z,477.52
2023-04-18T10:44:19.762Z,444.77
2023-04-18T10:47:23.056Z,371.10
2023-04-18T10:49:56.126Z,307.92
2023-04-18T10:52:24.510Z,223.48
2023-04-18T10:54:56.056Z,160.25
2023-04-18T10:57:26.471Z,122.47
2023-04-18T10:59:56.474Z,85.60
2023-04-18T11:02:27.105Z,79.57
2023-04-18T11:04:56.886Z,62.33
2023-04-18T11:07:34.168Z,48.45
2023-04-18T11:10:02.480Z,42.55
2023-04-18T11:12:33.007Z,31.23
2023-04-18T11:15:10.593Z,40.63
2023-04-18T11:17:40.848Z,23.00
2023-04-18T11:20:11.462Z,14.27
2023-04-18T11:22:47.779Z,17.75
2023-04-18T11:25:16.408Z,18.40
2023-04-18T11:27:45.774Z,12.65
2023-04-18T11:30:16.763Z,6.97
2023-04-18T11:32:45.486Z,9.93
2023-04-18T11:35:15.242Z,20.23
2023-04-18T11:37:45.453Z,10.38
2023-04-18T11:40:14.850Z,7.85
2023-04-18T11:42:43.264Z,10.43
2023-04-18T11:45:12.995Z,6.32
2023-04-18T11:47:44.023Z,3.88
2023-04-18T11:50:13.954Z,6.13
2023-04-18T11:52:43.250Z,5.05
2023-04-18T11:55:17.731Z,7.00
2023-04-18T11:57:53.239Z,5.93
2023-04-18T12:00:32.485Z,5.47
2023-04-18T12:03:02.923Z,8.73
2023-04-18T12:05:32.647Z,4.57
2023-04-18T12:08:07.233Z,7.40
2023-04-18T12:10:35.939Z,5.93
2023-04-18T12:13:08.687Z,5.82
2023-04-18T12:15:40.526Z,3.70
2023-04-18T12:18:09.957Z,4.60
2023-04-18T12:20:39.294Z,12.10
2023-04-18T12:23:07.941Z,11.38
2023-04-18T12:25:36.448Z,2.50
2023-04-18T12:28:14.769Z,16.25
2023-04-18T12:30:43.541Z,3.35
2023-04-18T12:33:12.933Z,5.10
2023-04-18T12:35:41.159Z,4.70
2023-04-18T12:38:09.130Z,2.75
2023-04-18T12:40:39.698Z,7.07
2023-04-18T12:43:08.321Z,6.50
2023-04-18T12:45:36.490Z,4.38
2023-04-18T12:48:04.653Z,4.00
2023-04-18T12:50:34.213Z,2.95
2023-04-18T12:53:03.401Z,2.67
2023-04-18T12:55:31.419Z,2.85
2023-04-18T12:57:59.449Z,3.92
2023-04-18T13:00:29.084Z,3.40
2023-04-18T13:02:57.359Z,3.53
2023-04-18T13:05:29.182Z,3.67
2023-04-18T13:08:12.855Z,4.78
2023-04-18T13:10:44.005Z,4.13
2023-04-18T13:13:12.032Z,5.20
2023-04-18T13:15:40.191Z,1.63
2023-04-18T13:18:08.460Z,2.50
2023-04-18T13:20:36.555Z,3.35
2023-04-18T13:23:05.956Z,2.15
2023-04-18T13:25:33.967Z,2.40
2023-04-18T13:28:01.956Z,4.60
2023-04-18T13:30:29.972Z,2.45
2023-04-18T13:32:57.882Z,2.08
2023-04-18T13:35:25.939Z,0.90
2023-04-18T13:37:53.978Z,4.90
2023-04-18T13:40:24.205Z,1.05
2023-04-18T13:42:52.595Z,4.97
2023-04-18T13:45:20.582Z,7.80
2023-04-18T13:47:48.613Z,4.47
2023-04-18T13:50:16.855Z,4.32
2023-04-18T13:52:44.833Z,3.58
2023-04-18T13:55:12.800Z,2.83
2023-04-18T13:57:42.198Z,2.03
2023-04-18T14:00:13.810Z,1.75
2023-04-18T14:02:42.058Z,0.95
2023-04-18T14:05:10.941Z,1.05
2023-04-18T14:07:39.347Z,6.07
2023-04-18T14:10:08.335Z,3.13
2023-04-18T14:12:36.325Z,2.20
2023-04-18T14:15:06.812Z,0.88
2023-04-18T14:17:34.956Z,1.65
2023-04-18T14:20:03.180Z,1.35
2023-04-18T14:22:31.198Z,3.42
2023-04-18T14:24:59.128Z,2.95
2023-04-18T14:27:27.717Z,3.20
2023-04-18T14:29:55.797Z,1.17
2023-04-18T14:32:25.366Z,1.52
2023-04-18T14:34:53.661Z,2.20
2023-04-18T14:37:22.295Z,1.92
2023-04-18T14:39:50.562Z,3.10
2023-04-18T14:42:18.977Z,4.72
2023-04-18T14:44:46.894Z,1.05
2023-04-18T14:47:14.965Z,2.10
2023-04-18T14:49:44.341Z,5.78
2023-04-18T14:52:12.309Z,2.70
2023-04-18T14:54:40.208Z,3.45
2023-04-18T14:57:08.618Z,1.15
2023-04-18T14:59:36.590Z,2.30
2023-04-18T15:02:04.777Z,1.63
2023-04-18T15:04:33.015Z,3.78
2023-04-18T15:07:02.522Z,4.93
2023-04-18T15:09:30.742Z,4.55
2023-04-18T15:12:00.201Z,6.28
2023-04-18T15:14:28.203Z,8.20
2023-04-18T15:16:56.665Z,7.20
2023-04-18T15:19:24.970Z,2.38
2023-04-18T15:21:53.029Z,2.22
2023-04-18T15:24:22.392Z,6.30
2023-04-18T15:26:50.726Z,4.53
2023-04-18T15:29:18.791Z,4.75
2023-04-18T15:31:47.021Z,5.75
2023-04-18T15:34:15.291Z,4.60
2023-04-18T15:36:43.657Z,3.00
2023-04-18T15:39:11.737Z,2.50
2023-04-18T15:41:42.091Z,4.10
2023-04-18T15:44:10.224Z,3.28
2023-04-18T15:46:38.280Z,4.35
2023-04-18T15:49:06.572Z,2.85
2023-04-18T15:51:34.607Z,3.13
2023-04-18T15:54:02.739Z,1.23
2023-04-18T15:56:33.639Z,0.85
2023-04-18T15:59:05.739Z,4.13
2023-04-18T16:01:35.557Z,1.40
2023-04-18T16:04:03.754Z,3.30
2023-04-18T16:06:32.278Z,1.17
2023-04-18T16:09:00.258Z,0.98
2023-04-18T16:11:28.921Z,3.58
2023-04-18T16:13:56.970Z,0.73
2023-04-18T16:16:28.354Z,3.90
2023-04-18T16:18:56.489Z,0.30
2023-04-18T16:21:26.278Z,1.30
2023-04-18T16:23:54.317Z,1.27
2023-04-18T16:26:24.724Z,3.30
2023-04-18T16:28:52.863Z,5.38
2023-04-18T16:31:21.114Z,0.85
2023-04-18T16:33:52.502Z,4.10
2023-04-18T16:36:20.732Z,0.82
2023-04-18T16:38:48.700Z,0.95
2023-04-18T16:41:16.675Z,0.47
2023-04-18T16:43:44.754Z,2.53
2023-04-18T16:46:13.778Z,0.95
2023-04-18T16:48:41.868Z,0.50
2023-04-18T16:51:13.094Z,2.38
2023-04-18T16:53:41.170Z,0.43
2023-04-18T16:56:09.325Z,3.03
2023-04-18T16:58:37.248Z,0.45
2023-04-18T17:01:05.414Z,3.33
2023-04-18T17:03:33.649Z,2.08
2023-04-18T17:06:02.235Z,1.83
2023-04-18T17:08:33.005Z,4.07
2023-04-18T17:11:02.246Z,0.45
2023-04-18T17:13:31.564Z,1.50
2023-04-18T17:15:59.755Z,0.90
2023-04-18T17:18:28.868Z,0.77
2023-04-18T17:20:56.929Z,1.13
2023-04-18T17:23:24.970Z,1.30
2023-04-18T17:25:54.249Z,0.63
2023-04-18T17:28:23.671Z,2.67
2023-04-18T17:30:51.905Z,0.38
2023-04-18T17:33:19.787Z,2.35
2023-04-18T17:35:48.208Z,0.80
2023-04-18T17:38:16.178Z,2.78
2023-04-18T17:40:44.246Z,1.70
2023-04-18T17:43:13.581Z,31.40
2023-04-18T17:45:42.387Z,53.08
2023-04-18T17:48:10.400Z,251.00
2023-04-18T17:50:38.455Z,374.08
2023-04-18T17:53:06.418Z,213.48
2023-04-18T17:55:34.513Z,133.20
2023-04-18T17:58:02.390Z,83.63
2023-04-18T18:00:31.966Z,71.20
2023-04-18T18:03:01.400Z,43.03
2023-04-18T18:05:30.260Z,34.28
2023-04-18T18:07:58.630Z,28.42
2023-04-18T18:10:26.978Z,26.85
2023-04-18T18:12:54.982Z,22.50
2023-04-18T18:15:24.124Z,19.38
2023-04-18T18:17:54.819Z,18.38
2023-04-18T18:20:23.175Z,14.75
2023-04-18T18:22:51.452Z,17.77
2023-04-18T18:25:20.729Z,13.57
2023-04-18T18:27:49.421Z,12.93
2023-04-18T18:30:17.463Z,11.45
2023-04-18T18:32:45.507Z,7.28
2023-04-18T18:35:15.071Z,9.02
2023-04-18T18:37:43.079Z,6.45
2023-04-18T18:40:11.776Z,12.07
2023-04-18T18:42:40.049Z,8.85
2023-04-18T18:45:09.446Z,5.85
2023-04-18T18:47:39.640Z,6.53
2023-04-18T18:50:08.647Z,6.18
2023-04-18T18:52:40.650Z,6.82
2023-04-18T18:55:09.838Z,6.60
2023-04-18T18:57:38.214Z,6.57
2023-04-18T19:00:09.365Z,4.97
2023-04-18T19:02:37.828Z,4.70
2023-04-18T19:05:06.868Z,7.50
2023-04-18T19:07:34.880Z,4.10
2023-04-18T19:10:04.683Z,5.68
2023-04-18T19:12:32.711Z,9.13
2023-04-18T19:15:00.728Z,3.92
2023-04-18T19:17:28.729Z,3.90
2023-04-18T19:19:59.203Z,3.97
2023-04-18T19:22:27.268Z,7.38
2023-04-18T19:24:55.149Z,6.25
2023-04-18T19:27:24.595Z,5.70
2023-04-18T19:29:52.671Z,2.80
2023-04-18T19:32:20.889Z,4.45
2023-04-18T19:34:48.900Z,2.08
2023-04-18T19:37:16.863Z,2.97
2023-04-18T19:39:44.882Z,3.70
2023-04-18T19:42:12.862Z,1.45
2023-04-18T19:44:42.286Z,2.28
2023-04-18T19:47:10.347Z,2.08
2023-04-18T19:49:38.342Z,4.28
2023-04-18T19:52:06.890Z,3.92
2023-04-18T19:54:35.041Z,1.55
2023-04-18T19:57:04.642Z,4.18
2023-04-18T19:59:32.704Z,1.10
2023-04-18T20:02:05.090Z,0.60
2023-04-18T20:04:36.516Z,2.33
2023-04-18T20:07:04.816Z,1.85
2023-04-18T20:09:32.767Z,0.98
2023-04-18T20:12:01.928Z,1.92
2023-04-18T20:14:30.598Z,1.38
2023-04-18T20:16:58.619Z,2.50
2023-04-18T20:19:29.701Z,1.02
2023-04-18T20:21:57.923Z,1.05
2023-04-18T20:24:28.052Z,3.78
2023-04-18T20:26:57.182Z,3.10
2023-04-18T20:29:25.228Z,1.00
2023-04-18T20:31:53.253Z,2.60
2023-04-18T20:34:21.377Z,1.38
2023-04-18T20:36:52.493Z,3.30
2023-04-18T20:39:20.765Z,2.92
2023-04-18T20:41:51.493Z,2.95
2023-04-18T20:44:20.940Z,0.80
2023-04-18T20:46:48.961Z,0.93
2023-04-18T20:49:17.006Z,1.27
2023-04-18T20:51:45.120Z,1.17
2023-04-18T20:54:14.722Z,0.90
2023-04-18T20:56:43.001Z,1.55
2023-04-18T20:59:11.098Z,2.92
2023-04-18T21:01:39.237Z,1.75
2023-04-18T21:04:07.502Z,1.58
2023-04-18T21:06:36.571Z,1.02
2023-04-18T21:09:04.755Z,0.60
2023-04-18T21:11:34.107Z,2.58
2023-04-18T21:14:03.739Z,0.57
2023-04-18T21:16:31.832Z,3.78
2023-04-18T21:19:00.035Z,0.95
2023-04-18T21:21:28.159Z,2.15
2023-04-18T21:23:56.066Z,1.55
2023-04-18T21:26:24.091Z,1.52
2023-04-18T21:28:58.330Z,0.57
2023-04-18T21:31:27.700Z,1.23
2023-04-18T21:33:56.212Z,0.80
2023-04-18T21:36:26.418Z,1.45
2023-04-18T21:38:54.872Z,1.08
2023-04-18T21:41:23.148Z,0.35
2023-04-18T21:43:51.422Z,1.05
2023-04-18T21:46:21.208Z,0.98
2023-04-18T21:48:49.682Z,1.17
2023-04-18T21:51:18.322Z,1.15
2023-04-18T21:53:46.307Z,1.45
2023-04-18T21:56:14.386Z,1.05
2023-04-18T21:58:42.367Z,2.10
2023-04-18T22:01:10.406Z,1.23
2023-04-18T22:03:40.096Z,2.20
2023-04-18T22:06:08.375Z,1.85
2023-04-18T22:08:36.648Z,1.38
2023-04-18T22:11:05.149Z,2.13
2023-04-18T22:13:33.916Z,2.95
2023-04-18T22:16:03.352Z,2.67
2023-04-18T22:18:33.721Z,0.55
2023-04-18T22:21:04.026Z,2.45
2023-04-18T22:23:32.163Z,7.63
2023-04-18T22:26:00.355Z,1.67
2023-04-18T22:28:28.952Z,1.08
2023-04-18T22:30:57.260Z,1.55
2023-04-18T22:33:25.387Z,1.65
2023-04-18T22:35:54.185Z,1.10
2023-04-18T22:38:23.555Z,1.05
2023-04-18T22:40:51.601Z,2.15
2023-04-18T22:43:22.845Z,1.50
2023-04-18T22:45:51.283Z,1.00
2023-04-18T22:48:19.769Z,4.68
2023-04-18T22:50:47.763Z,0.63
2023-04-18T22:53:15.999Z,1.95
2023-04-18T22:55:46.142Z,1.13
2023-04-18T22:58:14.527Z,3.72
2023-04-18T23:00:43.818Z,2.28
2023-04-18T23:03:11.945Z,0.60
2023-04-18T23:05:40.024Z,2.92
2023-04-18T23:08:08.037Z,2.67
2023-04-18T23:10:36.249Z,0.88
2023-04-18T23:13:05.761Z,6.43
2023-04-18T23:15:33.859Z,0.90
2023-04-18T23:18:01.909Z,0.60
2023-04-18T23:20:29.992Z,1.75
2023-04-18T23:22:57.986Z,3.00
2023-04-18T23:25:25.964Z,2.10
2023-04-18T23:27:53.954Z,0.40
2023-04-18T23:30:23.288Z,1.83
2023-04-18T23:32:51.223Z,1.13
2023-04-18T23:35:19.127Z,0.65
2023-04-18T23:37:47.149Z,1.02
2023-04-18T23:40:15.004Z,0.98
2023-04-18T23:42:43.876Z,0.55
2023-04-18T23:45:12.628Z,2.05
2023-04-18T23:47:42.043Z,0.40
2023-04-18T23:50:10.915Z,1.33
2023-04-18T23:52:39.224Z,0.65
2023-04-18T23:55:08.066Z,1.15
2023-04-18T23:57:36.110Z,1.55
